地図

経路データ

SID SEASON NUMBER BASIN SUBBASIN NAME ISO_TIME NATURE LAT LON WMO_WIND WMO_PRES WMO_AGENCY TRACK_TYPE DIST2LAND LANDFALL IFLAG USA_AGENCY USA_ATCF_ID USA_LAT USA_LON USA_RECORD USA_STATUS USA_WIND USA_PRES USA_SSHS USA_R34_NE USA_R34_SE USA_R34_SW USA_R34_NW USA_R50_NE USA_R50_SE USA_R50_SW USA_R50_NW USA_R64_NE USA_R64_SE USA_R64_SW USA_R64_NW USA_POCI USA_ROCI USA_RMW USA_EYE TOKYO_LAT TOKYO_LON TOKYO_GRADE TOKYO_WIND TOKYO_PRES TOKYO_R50_DIR TOKYO_R50_LONG TOKYO_R50_SHORT TOKYO_R30_DIR TOKYO_R30_LONG TOKYO_R30_SHORT TOKYO_LAND CMA_LAT CMA_LON CMA_CAT CMA_WIND CMA_PRES HKO_LAT HKO_LON HKO_CAT HKO_WIND HKO_PRES NEWDELHI_LAT NEWDELHI_LON NEWDELHI_GRADE NEWDELHI_WIND NEWDELHI_PRES NEWDELHI_CI NEWDELHI_DP NEWDELHI_POCI REUNION_LAT REUNION_LON REUNION_TYPE REUNION_WIND REUNION_PRES REUNION_TNUM REUNION_CI REUNION_RMW REUNION_R34_NE REUNION_R34_SE REUNION_R34_SW REUNION_R34_NW REUNION_R50_NE REUNION_R50_SE REUNION_R50_SW REUNION_R50_NW REUNION_R64_NE REUNION_R64_SE REUNION_R64_SW REUNION_R64_NW BOM_LAT BOM_LON BOM_TYPE BOM_WIND BOM_PRES BOM_TNUM BOM_CI BOM_RMW BOM_R34_NE BOM_R34_SE BOM_R34_SW BOM_R34_NW BOM_R50_NE BOM_R50_SE BOM_R50_SW BOM_R50_NW BOM_R64_NE BOM_R64_SE BOM_R64_SW BOM_R64_NW BOM_ROCI BOM_POCI BOM_EYE BOM_POS_METHOD BOM_PRES_METHOD NADI_LAT NADI_LON NADI_CAT NADI_WIND NADI_PRES WELLINGTON_LAT WELLINGTON_LON WELLINGTON_WIND WELLINGTON_PRES DS824_LAT DS824_LON DS824_STAGE DS824_WIND DS824_PRES TD9636_LAT TD9636_LON TD9636_STAGE TD9636_WIND TD9636_PRES TD9635_LAT TD9635_LON TD9635_WIND TD9635_PRES TD9635_ROCI NEUMANN_LAT NEUMANN_LON NEUMANN_CLASS NEUMANN_WIND NEUMANN_PRES MLC_LAT MLC_LON MLC_CLASS MLC_WIND MLC_PRES USA_GUST BOM_GUST BOM_GUST_PER REUNION_GUST REUNION_GUST_PER USA_SEAHGT USA_SEARAD_NE USA_SEARAD_SE USA_SEARAD_SW USA_SEARAD_NW STORM_SPEED STORM_DIR
1918289N15126 1918 64 WP MM NOT_NAMED 1918-10-15 22:00:00 NR 15.3000 125.800 main 217 174 __________O___ -1 15.3000 125.800 2 16 272
1918289N15126 1918 64 WP MM NOT_NAMED 1918-10-16 00:00:00 NR 15.3175 125.245 main 174 145 __________P___ -1 15.3175 125.245 2 16 272
1918289N15126 1918 64 WP MM NOT_NAMED 1918-10-16 03:00:00 NR 15.3420 124.421 main 145 145 __________P___ -1 15.3420 124.421 2 16 272
1918289N15126 1918 64 WP MM NOT_NAMED 1918-10-16 06:00:00 NR 15.3660 123.617 main 153 108 __________P___ -1 15.3660 123.617 2 15 272
1918289N15126 1918 64 WP MM NOT_NAMED 1918-10-16 09:00:00 NR 15.3911 122.847 main 108 92 __________P___ -1 15.3911 122.847 2 15 272
1918289N15126 1918 64 WP MM NOT_NAMED 1918-10-16 10:00:00 NR 15.4000 122.600 main 92 63 __________O___ -1 15.4000 122.600 2 14 272
1918289N15126 1918 64 WP MM NOT_NAMED 1918-10-16 12:00:00 NR 15.4189 122.123 main 63 10 __________P___ -1 15.4189 122.123 2 13 272
1918289N15126 1918 64 WP MM NOT_NAMED 1918-10-16 15:00:00 NR 15.4478 121.464 main 10 0 __________P___ -1 15.4478 121.464 2 12 273
1918289N15126 1918 64 WP MM NOT_NAMED 1918-10-16 18:00:00 NR 15.4743 120.892 main 0 0 __________P___ -1 15.4743 120.892 2 10 273
1918289N15126 1918 64 WP MM NOT_NAMED 1918-10-16 21:00:00 NR 15.4950 120.427 main 0 0 __________P___ -1 15.4950 120.427 2 9 273
1918289N15126 1918 64 WP MM NOT_NAMED 1918-10-16 22:00:00 NR 15.5000 120.300 main 0 0 __________O___ -1 15.5000 120.300 2 7 271
1918289N15126 1918 64 WP MM NOT_NAMED 1918-10-17 00:00:00 NR 15.5024 120.089 main 0 0 __________P___ -1 15.5024 120.089 2 5 270
1918289N15126 1918 64 WP MM NOT_NAMED 1918-10-17 03:00:00 NR 15.5003 119.874 main 10 10 __________P___ -1 15.5003 119.874 2 3 269
1918289N15126 1918 64 WP MM NOT_NAMED 1918-10-17 06:00:00 NR 15.4967 119.738 main 24 24 __________P___ -1 15.4967 119.738 2 2 269
1918289N15126 1918 64 WP MM NOT_NAMED 1918-10-17 09:00:00 NR 15.4977 119.635 main 34 34 __________P___ -1 15.4977 119.635 2 2 271
1918289N15126 1918 64 WP MM NOT_NAMED 1918-10-17 10:00:00 NR 15.5000 119.600 main 34 34 __________O___ -1 15.5000 119.600 2 3 277
1918289N15126 1918 64 WP MM NOT_NAMED 1918-10-17 12:00:00 NR 15.5135 119.500 main 44 44 __________P___ -1 15.5135 119.500 2 3 280
1918289N15126 1918 64 WP MM NOT_NAMED 1918-10-17 15:00:00 NR 15.5402 119.355 main 54 61 __________P___ -1 15.5402 119.355 2 3 281
1918289N15126 1918 64 WP MM NOT_NAMED 1918-10-17 18:00:00 NR 15.5690 119.210 main 69 69 __________P___ -1 15.5690 119.210 2 3 281
1918289N15126 1918 64 WP MM NOT_NAMED 1918-10-17 21:00:00 NR 15.5937 119.055 main 78 87 __________P___ -1 15.5937 119.055 2 3 279
1918289N15126 1918 64 WP MM NOT_NAMED 1918-10-17 22:00:00 NR 15.6000 119.000 main 87 87 __________O___ -1 15.6000 119.000 2 3 273
1918289N15126 1918 64 WP MM NOT_NAMED 1918-10-18 00:00:00 NR 15.6031 118.875 main 96 96 __________P___ -1 15.6031 118.875 2 4 270
1918289N15126 1918 64 WP MM NOT_NAMED 1918-10-18 03:00:00 NR 15.6014 118.676 main 116 116 __________P___ -1 15.6014 118.676 2 4 269
1918289N15126 1918 64 WP MM NOT_NAMED 1918-10-18 06:00:00 NR 15.5976 118.470 main 136 136 __________P___ -1 15.5976 118.470 2 4 269
1918289N15126 1918 64 WP MM NOT_NAMED 1918-10-18 09:00:00 NR 15.5979 118.266 main 156 156 __________P___ -1 15.5979 118.266 2 4 271
1918289N15126 1918 64 WP MM NOT_NAMED 1918-10-18 10:00:00 NR 15.6000 118.200 main 166 166 __________O___ -1 15.6000 118.200 2 3 274
1918289N15126 1918 64 WP MM NOT_NAMED 1918-10-18 12:00:00 NR 15.6109 118.086 main 177 177 __________P___ -1 15.6109 118.086 2 3 277
1918289N15126 1918 64 WP MM NOT_NAMED 1918-10-18 15:00:00 NR 15.6335 117.920 main 197 197 __________P___ -1 15.6335 117.920 2 3 279
1918289N15126 1918 64 WP MM NOT_NAMED 1918-10-18 18:00:00 NR 15.6610 117.752 main 206 216 __________P___ -1 15.6610 117.752 2 3 279
1918289N15126 1918 64 WP MM NOT_NAMED 1918-10-18 21:00:00 NR 15.6904 117.567 main 227 227 __________P___ -1 15.6904 117.567 2 4 279
1918289N15126 1918 64 WP MM NOT_NAMED 1918-10-18 22:00:00 NR 15.7000 117.500 main 237 237 __________O___ -1 15.7000 117.500 2 4 277
1918289N15126 1918 64 WP MM NOT_NAMED 1918-10-19 00:00:00 NR 15.7167 117.350 main 248 259 __________P___ -1 15.7167 117.350 2 5 276
1918289N15126 1918 64 WP MM NOT_NAMED 1918-10-19 03:00:00 NR 15.7417 117.107 main 280 280 __________P___ -1 15.7417 117.107 2 5 276
1918289N15126 1918 64 WP MM NOT_NAMED 1918-10-19 06:00:00 NR 15.7667 116.850 main 311 311 __________P___ -1 15.7667 116.850 2 5 276
1918289N15126 1918 64 WP MM NOT_NAMED 1918-10-19 09:00:00 NR 15.7917 116.587 main 332 332 __________P___ -1 15.7917 116.587 2 5 276
1918289N15126 1918 64 WP MM NOT_NAMED 1918-10-19 10:00:00 NR 15.8000 116.500 main 343 343 __________O___ -1 15.8000 116.500 2 5 276
1918289N15126 1918 64 WP MM NOT_NAMED 1918-10-19 12:00:00 NR 15.8192 116.333 main 364 364 __________P___ -1 15.8192 116.333 2 5 277
1918289N15126 1918 64 WP MM NOT_NAMED 1918-10-19 15:00:00 NR 15.8482 116.083 main 385 385 __________P___ -1 15.8482 116.083 2 5 277
1918289N15126 1918 64 WP MM NOT_NAMED 1918-10-19 18:00:00 NR 15.8745 115.833 main 417 417 __________P___ -1 15.8745 115.833 2 5 276
1918289N15126 1918 64 WP MM NOT_NAMED 1918-10-19 21:00:00 NR 15.8950 115.583 main 438 438 __________P___ -1 15.8950 115.583 2 5 275
1918289N15126 1918 64 WP MM NOT_NAMED 1918-10-19 22:00:00 NR 15.9000 115.500 main 449 449 __________O___ -1 15.9000 115.500 2 5 272
1918289N15126 1918 64 WP MM NOT_NAMED 1918-10-20 00:00:00 NR 15.9030 115.331 main 470 470 __________P___ -1 15.9030 115.331 2 5 270
1918289N15126 1918 64 WP MM NOT_NAMED 1918-10-20 03:00:00 NR 15.9013 115.077 main 492 492 __________P___ -1 15.9013 115.077 2 5 269
1918289N15126 1918 64 WP MM NOT_NAMED 1918-10-20 06:00:00 NR 15.8975 114.825 main 524 524 __________P___ -1 15.8975 114.825 2 5 270
1918289N15126 1918 64 WP MM NOT_NAMED 1918-10-20 09:00:00 NR 15.8979 114.580 main 542 534 __________P___ -1 15.8979 114.580 2 5 270
1918289N15126 1918 64 WP MM NOT_NAMED 1918-10-20 10:00:00 NR 15.9000 114.500 main 534 517 __________O___ -1 15.9000 114.500 2 5 273
1918289N15126 1918 64 WP MM NOT_NAMED 1918-10-20 12:00:00 NR 15.9109 114.344 main 517 501 __________P___ -1 15.9109 114.344 2 4 275
1918289N15126 1918 64 WP MM NOT_NAMED 1918-10-20 15:00:00 NR 15.9336 114.117 main 501 477 __________P___ -1 15.9336 114.117 2 4 277
1918289N15126 1918 64 WP MM NOT_NAMED 1918-10-20 18:00:00 NR 15.9611 113.895 main 477 462 __________P___ -1 15.9611 113.895 2 4 278
1918289N15126 1918 64 WP MM NOT_NAMED 1918-10-20 21:00:00 NR 15.9904 113.674 main 462 454 __________P___ -1 15.9904 113.674 2 4 278
1918289N15126 1918 64 WP MM NOT_NAMED 1918-10-20 22:00:00 NR 16.0000 113.600 main 454 438 __________O___ -1 16.0000 113.600 2 4 277
1918289N15126 1918 64 WP MM NOT_NAMED 1918-10-21 00:00:00 NR 16.0166 113.447 main 438 423 __________P___ -1 16.0166 113.447 2 4 276
1918289N15126 1918 64 WP MM NOT_NAMED 1918-10-21 03:00:00 NR 16.0416 113.218 main 423 400 __________P___ -1 16.0416 113.218 2 4 277
1918289N15126 1918 64 WP MM NOT_NAMED 1918-10-21 06:00:00 NR 16.0666 112.992 main 400 386 __________P___ -1 16.0666 112.992 2 4 277
1918289N15126 1918 64 WP MM NOT_NAMED 1918-10-21 09:00:00 NR 16.0917 112.772 main 386 379 __________P___ -1 16.0917 112.772 2 4 277
1918289N15126 1918 64 WP MM NOT_NAMED 1918-10-21 10:00:00 NR 16.1000 112.700 main 379 373 __________O___ -1 16.1000 112.700 2 4 277
1918289N15126 1918 64 WP MM NOT_NAMED 1918-10-21 12:00:00 NR 16.1165 112.569 main 373 360 __________P___ -1 16.1165 112.569 2 4 278
1918289N15126 1918 64 WP MM NOT_NAMED 1918-10-21 15:00:00 NR 16.1414 112.379 main 360 338 __________P___ -1 16.1414 112.379 2 4 278
1918289N15126 1918 64 WP MM NOT_NAMED 1918-10-21 18:00:00 NR 16.1664 112.185 main 338 325 __________P___ -1 16.1664 112.185 2 4 277
1918289N15126 1918 64 WP MM NOT_NAMED 1918-10-21 21:00:00 NR 16.1916 111.975 main 325 318 __________P___ -1 16.1916 111.975 2 4 277
1918289N15126 1918 64 WP MM NOT_NAMED 1918-10-21 22:00:00 NR 16.2000 111.900 main 318 305 __________O___ -1 16.2000 111.900 2 5 276
1918289N15126 1918 64 WP MM NOT_NAMED 1918-10-22 00:00:00 NR 16.2141 111.734 main 305 293 __________P___ -1 16.2141 111.734 2 5 275
1918289N15126 1918 64 WP MM NOT_NAMED 1918-10-22 03:00:00 NR 16.2351 111.465 main 293 265 __________P___ -1 16.2351 111.465 2 5 275
1918289N15126 1918 64 WP MM NOT_NAMED 1918-10-22 06:00:00 NR 16.2588 111.183 main 265 246 __________P___ -1 16.2588 111.183 2 6 276
1918289N15126 1918 64 WP MM NOT_NAMED 1918-10-22 09:00:00 NR 16.2883 110.895 main 246 237 __________P___ -1 16.2883 110.895 2 6 276
1918289N15126 1918 64 WP MM NOT_NAMED 1918-10-22 10:00:00 NR 16.3000 110.800 main 237 219 __________O___ -1 16.3000 110.800 2 6 278
1918289N15126 1918 64 WP MM NOT_NAMED 1918-10-22 12:00:00 NR 16.3266 110.612 main 219 201 __________P___ -1 16.3266 110.612 2 5 279
1918289N15126 1918 64 WP MM NOT_NAMED 1918-10-22 15:00:00 NR 16.3732 110.334 main 201 185 __________P___ -1 16.3732 110.334 2 5 281
1918289N15126 1918 64 WP MM NOT_NAMED 1918-10-22 18:00:00 NR 16.4257 110.061 main 185 168 __________P___ -1 16.4257 110.061 2 5 282
1918289N15126 1918 64 WP MM NOT_NAMED 1918-10-22 21:00:00 NR 16.4812 109.790 main 168 159 __________P___ -1 16.4812 109.790 2 5 282
1918289N15126 1918 64 WP MM NOT_NAMED 1918-10-22 22:00:00 NR 16.5000 109.700 main 159 __________O___ -1 16.5000 109.700 7 5 282

デジタル台風データ・検索

IBTrACS Databaseについて

本データベースは、米国NOAAが公開する1842年以降の世界の熱帯低気圧のベストトラックデータアーカイブInternational Best Track Archive for Climate Stewardship (IBTrACS)を、ウェブで閲覧しやすい形式に変換したものです。

最終更新日:2021-10-21